sensor_id;sensor_type;location;lat;lon;timestamp;pressure;altitude;pressure_sealevel;temperature;humidity
25156;BME280;21913;52.456;13.634;2023-04-23T00:04:31;99519.78;;;14.69;86.89
25156;BME280;21913;52.456;13.634;2023-04-23T00:09:34;99504.16;;;14.67;86.55
25156;BME280;21913;52.456;13.634;2023-04-23T00:14:36;99498.16;;;14.65;86.66
25156;BME280;21913;52.456;13.634;2023-04-23T00:19:37;99496.44;;;14.64;86.80
25156;BME280;21913;52.456;13.634;2023-04-23T00:24:39;99496.44;;;14.64;86.54
25156;BME280;21913;52.456;13.634;2023-04-23T00:29:40;99503.41;;;14.62;86.49
25156;BME280;21913;52.456;13.634;2023-04-23T00:34:42;99504.31;;;14.61;86.59
25156;BME280;21913;52.456;13.634;2023-04-23T00:39:43;99505.22;;;14.60;86.45
25156;BME280;21913;52.456;13.634;2023-04-23T00:44:45;99503.50;;;14.59;86.36
25156;BME280;21913;52.456;13.634;2023-04-23T00:49:47;99500.09;;;14.57;86.47
25156;BME280;21913;52.456;13.634;2023-04-23T00:54:49;99487.94;;;14.56;86.79
25156;BME280;21913;52.456;13.634;2023-04-23T00:59:50;99493.22;;;14.55;86.48
25156;BME280;21913;52.456;13.634;2023-04-23T01:04:53;99498.47;;;14.53;86.63
25156;BME280;21913;52.456;13.634;2023-04-23T01:09:55;99501.06;;;14.53;86.49
25156;BME280;21913;52.456;13.634;2023-04-23T01:14:57;99501.97;;;14.52;86.61
25156;BME280;21913;52.456;13.634;2023-04-23T01:19:59;99504.59;;;14.51;86.51
25156;BME280;21913;52.456;13.634;2023-04-23T01:25:02;99506.34;;;14.50;86.64
25156;BME280;21913;52.456;13.634;2023-04-23T01:30:04;99515.09;;;14.48;86.75
25156;BME280;21913;52.456;13.634;2023-04-23T01:35:07;99520.28;;;14.48;86.37
25156;BME280;21913;52.456;13.634;2023-04-23T01:40:09;99519.44;;;14.47;86.44
25156;BME280;21913;52.456;13.634;2023-04-23T01:45:11;99517.66;;;14.46;86.43
25156;BME280;21913;52.456;13.634;2023-04-23T01:50:13;99523.78;;;14.45;86.49
25156;BME280;21913;52.456;13.634;2023-04-23T01:55:15;99513.41;;;14.43;86.56
25156;BME280;21913;52.456;13.634;2023-04-23T02:00:17;99515.16;;;14.43;86.45
25156;BME280;21913;52.456;13.634;2023-04-23T02:05:19;99514.31;;;14.42;86.41
25156;BME280;21913;52.456;13.634;2023-04-23T02:10:21;99527.38;;;14.41;86.46
25156;BME280;21913;52.456;13.634;2023-04-23T02:15:23;99533.44;;;14.40;86.40
25156;BME280;21913;52.456;13.634;2023-04-23T02:20:24;99521.31;;;14.39;86.58
25156;BME280;21913;52.456;13.634;2023-04-23T02:25:26;99521.31;;;14.39;86.59
25156;BME280;21913;52.456;13.634;2023-04-23T02:30:28;99521.38;;;14.37;86.46
25156;BME280;21913;52.456;13.634;2023-04-23T02:35:30;99527.47;;;14.35;86.46
25156;BME280;21913;52.456;13.634;2023-04-23T02:40:31;99532.69;;;14.35;86.44
25156;BME280;21913;52.456;13.634;2023-04-23T02:45:32;99528.38;;;14.35;86.36
25156;BME280;21913;52.456;13.634;2023-04-23T02:50:35;99524.94;;;14.33;86.30
25156;BME280;21913;52.456;13.634;2023-04-23T02:55:36;99524.06;;;14.33;86.33
25156;BME280;21913;52.456;13.634;2023-04-23T03:00:38;99513.72;;;14.31;86.25
25156;BME280;21913;52.456;13.634;2023-04-23T03:05:39;99518.06;;;14.31;86.41
25156;BME280;21913;52.456;13.634;2023-04-23T03:10:41;99527.63;;;14.30;86.29
25156;BME280;21913;52.456;13.634;2023-04-23T03:15:42;99524.13;;;14.30;86.35
25156;BME280;21913;52.456;13.634;2023-04-23T03:20:44;99525.03;;;14.29;86.29
25156;BME280;21913;52.456;13.634;2023-04-23T03:25:45;99530.28;;;14.27;86.13
25156;BME280;21913;52.456;13.634;2023-04-23T03:30:47;99520.72;;;14.28;86.28
25156;BME280;21913;52.456;13.634;2023-04-23T03:35:48;99521.63;;;14.27;86.06
25156;BME280;21913;52.456;13.634;2023-04-23T03:40:55;99519.91;;;14.26;86.12
25156;BME280;21913;52.456;13.634;2023-04-23T03:45:58;99523.38;;;14.26;86.19
25156;BME280;21913;52.456;13.634;2023-04-23T03:51:01;99526.00;;;14.25;86.01
25156;BME280;21913;52.456;13.634;2023-04-23T03:56:15;99515.63;;;14.23;86.30
25156;BME280;21913;52.456;13.634;2023-04-23T04:01:26;99510.41;;;14.23;86.15
25156;BME280;21913;52.456;13.634;2023-04-23T04:06:27;99512.16;;;14.23;85.96
25156;BME280;21913;52.456;13.634;2023-04-23T04:11:29;99507.84;;;14.21;86.19
25156;BME280;21913;52.456;13.634;2023-04-23T04:16:30;99500.09;;;14.20;85.94
25156;BME280;21913;52.456;13.634;2023-04-23T04:21:32;99502.69;;;14.20;86.02
25156;BME280;21913;52.456;13.634;2023-04-23T04:26:33;99507.91;;;14.20;85.92
25156;BME280;21913;52.456;13.634;2023-04-23T04:31:35;99498.41;;;14.17;86.03
25156;BME280;21913;52.456;13.634;2023-04-23T04:36:36;99496.66;;;14.18;86.03
25156;BME280;21913;52.456;13.634;2023-04-23T04:41:38;99501.00;;;14.17;86.00
25156;BME280;21913;52.456;13.634;2023-04-23T04:46:39;99505.34;;;14.17;85.98
25156;BME280;21913;52.456;13.634;2023-04-23T04:51:41;99510.56;;;14.17;85.86
25156;BME280;21913;52.456;13.634;2023-04-23T04:56:42;99508.84;;;14.16;85.95
25156;BME280;21913;52.456;13.634;2023-04-23T05:01:44;99508.91;;;14.14;85.79
25156;BME280;21913;52.456;13.634;2023-04-23T05:06:45;99495.88;;;14.14;85.88
25156;BME280;21913;52.456;13.634;2023-04-23T05:11:47;99504.56;;;14.13;85.78
25156;BME280;21913;52.456;13.634;2023-04-23T05:16:49;99489.84;;;14.14;86.01
25156;BME280;21913;52.456;13.634;2023-04-23T05:21:50;99497.66;;;14.12;85.65
25156;BME280;21913;52.456;13.634;2023-04-23T05:26:52;99498.50;;;14.13;85.69
25156;BME280;21913;52.456;13.634;2023-04-23T05:31:53;99497.66;;;14.12;85.78
25156;BME280;21913;52.456;13.634;2023-04-23T05:36:55;99485.53;;;14.11;85.93
25156;BME280;21913;52.456;13.634;2023-04-23T05:41:56;99477.75;;;14.11;85.97
25156;BME280;21913;52.456;13.634;2023-04-23T05:46:58;99489.03;;;14.10;85.71
25156;BME280;21913;52.456;13.634;2023-04-23T05:52:00;99481.22;;;14.10;85.86
25156;BME280;21913;52.456;13.634;2023-04-23T05:57:02;99481.28;;;14.09;85.84
25156;BME280;21913;52.456;13.634;2023-04-23T06:02:03;99483.03;;;14.08;85.81
25156;BME280;21913;52.456;13.634;2023-04-23T06:07:05;99486.50;;;14.07;85.56
25156;BME280;21913;52.456;13.634;2023-04-23T06:12:07;99493.44;;;14.08;85.65
25156;BME280;21913;52.456;13.634;2023-04-23T06:17:08;99490.84;;;14.07;85.79
25156;BME280;21913;52.456;13.634;2023-04-23T06:22:10;99487.34;;;14.08;85.66
25156;BME280;21913;52.456;13.634;2023-04-23T06:27:12;99483.91;;;14.07;85.78
25156;BME280;21913;52.456;13.634;2023-04-23T06:32:18;99470.06;;;14.05;85.73
25156;BME280;21913;52.456;13.634;2023-04-23T06:37:20;99469.19;;;14.06;85.75
25156;BME280;21913;52.456;13.634;2023-04-23T06:42:22;99470.97;;;14.04;85.68
25156;BME280;21913;52.456;13.634;2023-04-23T06:47:39;99476.19;;;14.04;85.71
25156;BME280;21913;52.456;13.634;2023-04-23T06:52:41;99464.91;;;14.04;85.62
25156;BME280;21913;52.456;13.634;2023-04-23T06:57:43;99465.81;;;14.03;85.61
25156;BME280;21913;52.456;13.634;2023-04-23T07:02:44;99461.47;;;14.03;85.73
25156;BME280;21913;52.456;13.634;2023-04-23T07:07:46;99457.13;;;14.02;85.67
25156;BME280;21913;52.456;13.634;2023-04-23T07:12:48;99447.59;;;14.03;85.52
25156;BME280;21913;52.456;13.634;2023-04-23T07:17:49;99441.53;;;14.02;85.48
25156;BME280;21913;52.456;13.634;2023-04-23T07:22:51;99446.72;;;14.02;85.60
25156;BME280;21913;52.456;13.634;2023-04-23T07:27:52;99444.16;;;14.01;85.50
25156;BME280;21913;52.456;13.634;2023-04-23T07:32:54;99451.06;;;14.02;85.57
25156;BME280;21913;52.456;13.634;2023-04-23T07:37:55;99439.81;;;14.01;85.45
25156;BME280;21913;52.456;13.634;2023-04-23T07:42:57;99438.06;;;14.02;85.13
25156;BME280;21913;52.456;13.634;2023-04-23T07:47:58;99429.41;;;14.03;85.27
25156;BME280;21913;52.456;13.634;2023-04-23T07:53:00;99431.09;;;14.04;85.21
25156;BME280;21913;52.456;13.634;2023-04-23T07:58:02;99414.59;;;14.05;85.22
25156;BME280;21913;52.456;13.634;2023-04-23T08:03:03;99434.47;;;14.07;84.61
25156;BME280;21913;52.456;13.634;2023-04-23T08:08:09;99437.91;;;14.08;83.34
25156;BME280;21913;52.456;13.634;2023-04-23T08:13:11;99431.00;;;14.08;82.90
25156;BME280;21913;52.456;13.634;2023-04-23T08:18:12;99431.84;;;14.09;83.09
25156;BME280;21913;52.456;13.634;2023-04-23T08:23:14;99424.91;;;14.08;83.41
25156;BME280;21913;52.456;13.634;2023-04-23T08:28:17;99427.56;;;14.06;83.57
25156;BME280;21913;52.456;13.634;2023-04-23T08:33:19;99423.25;;;14.05;83.68
25156;BME280;21913;52.456;13.634;2023-04-23T08:38:21;99424.09;;;14.06;83.93
25156;BME280;21913;52.456;13.634;2023-04-23T08:44:16;99421.56;;;14.04;84.01
25156;BME280;21913;52.456;13.634;2023-04-23T08:48:51;99412.91;;;14.02;84.30
25156;BME280;21913;52.456;13.634;2023-04-23T08:53:56;99411.19;;;14.03;84.46
25156;BME280;21913;52.456;13.634;2023-04-23T08:58:58;99408.59;;;14.03;84.53
25156;BME280;21913;52.456;13.634;2023-04-23T09:04:01;99405.13;;;14.02;84.49
25156;BME280;21913;52.456;13.634;2023-04-23T09:09:03;99406.00;;;14.01;84.44
25156;BME280;21913;52.456;13.634;2023-04-23T09:14:07;99398.19;;;14.03;84.17
25156;BME280;21913;52.456;13.634;2023-04-23T09:19:09;99392.09;;;14.04;84.25
25156;BME280;21913;52.456;13.634;2023-04-23T09:24:12;99395.53;;;14.04;84.20
25156;BME280;21913;52.456;13.634;2023-04-23T09:29:23;99398.09;;;14.06;84.04
25156;BME280;21913;52.456;13.634;2023-04-23T09:34:25;99386.84;;;14.05;83.80
25156;BME280;21913;52.456;13.634;2023-04-23T09:39:26;99383.34;;;14.06;83.99
25156;BME280;21913;52.456;13.634;2023-04-23T09:44:30;99388.53;;;14.06;83.93
25156;BME280;21913;52.456;13.634;2023-04-23T09:49:32;99381.63;;;14.05;83.64
25156;BME280;21913;52.456;13.634;2023-04-23T09:54:33;99373.00;;;14.05;83.84
25156;BME280;21913;52.456;13.634;2023-04-23T09:59:35;99368.63;;;14.05;83.82
25156;BME280;21913;52.456;13.634;2023-04-23T10:04:50;99377.34;;;14.04;83.85
25156;BME280;21913;52.456;13.634;2023-04-23T10:09:51;99362.63;;;14.03;83.97
25156;BME280;21913;52.456;13.634;2023-04-23T10:14:53;99372.19;;;14.03;84.24
25156;BME280;21913;52.456;13.634;2023-04-23T10:19:54;99369.59;;;14.03;83.34
25156;BME280;21913;52.456;13.634;2023-04-23T10:24:56;99373.03;;;14.03;79.64
25156;BME280;21913;52.456;13.634;2023-04-23T10:30:00;99367.59;;;14.12;76.58
25156;BME280;21913;52.456;13.634;2023-04-23T10:35:04;99370.06;;;14.17;75.12
25156;BME280;21913;52.456;13.634;2023-04-23T10:40:12;99354.31;;;14.23;73.57
25156;BME280;21913;52.456;13.634;2023-04-23T10:45:15;99344.50;;;14.33;71.66
25156;BME280;21913;52.456;13.634;2023-04-23T10:50:25;99331.44;;;14.36;70.49
25156;BME280;21913;52.456;13.634;2023-04-23T10:55:31;99330.44;;;14.40;69.31
25156;BME280;21913;52.456;13.634;2023-04-23T11:05:43;99327.97;;;14.35;68.80
25156;BME280;21913;52.456;13.634;2023-04-23T11:10:53;99323.69;;;14.33;68.83
25156;BME280;21913;52.456;13.634;2023-04-23T11:16:14;99321.94;;;14.33;69.05
25156;BME280;21913;52.456;13.634;2023-04-23T11:21:16;99305.44;;;14.34;68.78
25156;BME280;21913;52.456;13.634;2023-04-23T11:26:18;99308.88;;;14.35;68.30
25156;BME280;21913;52.456;13.634;2023-04-23T11:31:20;99295.88;;;14.35;67.71
25156;BME280;21913;52.456;13.634;2023-04-23T11:36:22;99300.16;;;14.37;67.22
25156;BME280;21913;52.456;13.634;2023-04-23T11:41:24;99299.19;;;14.41;66.52
25156;BME280;21913;52.456;13.634;2023-04-23T11:46:25;99296.44;;;14.48;66.07
25156;BME280;21913;52.456;13.634;2023-04-23T11:51:27;99287.94;;;14.41;67.90
25156;BME280;21913;52.456;13.634;2023-04-23T11:56:30;99289.06;;;14.31;70.30
25156;BME280;21913;52.456;13.634;2023-04-23T12:01:47;99273.66;;;14.23;72.10
25156;BME280;21913;52.456;13.634;2023-04-23T12:06:50;99269.50;;;14.16;73.66
25156;BME280;21913;52.456;13.634;2023-04-23T12:11:52;99256.63;;;14.11;74.79
25156;BME280;21913;52.456;13.634;2023-04-23T12:16:54;99259.31;;;14.08;75.64
25156;BME280;21913;52.456;13.634;2023-04-23T12:21:58;99258.50;;;14.06;76.52
25156;BME280;21913;52.456;13.634;2023-04-23T12:27:00;99251.59;;;14.05;76.91
25156;BME280;21913;52.456;13.634;2023-04-23T12:32:01;99242.09;;;14.04;77.50
25156;BME280;21913;52.456;13.634;2023-04-23T12:37:05;99238.66;;;14.02;78.12
25156;BME280;21913;52.456;13.634;2023-04-23T12:42:07;99236.09;;;14.01;78.17
25156;BME280;21913;52.456;13.634;2023-04-23T12:47:09;99243.06;;;14.00;78.73
25156;BME280;21913;52.456;13.634;2023-04-23T12:52:11;99232.66;;;14.00;78.88
25156;BME280;21913;52.456;13.634;2023-04-23T12:57:13;99218.81;;;14.00;79.19
25156;BME280;21913;52.456;13.634;2023-04-23T13:02:15;99204.03;;;14.00;79.17
25156;BME280;21913;52.456;13.634;2023-04-23T13:07:16;99199.75;;;13.99;79.42
25156;BME280;21913;52.456;13.634;2023-04-23T13:12:18;99207.53;;;13.99;79.48
25156;BME280;21913;52.456;13.634;2023-04-23T13:17:19;99260.47;;;13.98;79.58
25156;BME280;21913;52.456;13.634;2023-04-23T13:22:21;99268.25;;;13.98;79.53
25156;BME280;21913;52.456;13.634;2023-04-23T13:27:23;99242.25;;;13.98;79.70
25156;BME280;21913;52.456;13.634;2023-04-23T13:32:25;99185.91;;;13.97;79.68
25156;BME280;21913;52.456;13.634;2023-04-23T13:37:27;99180.75;;;13.95;79.84
25156;BME280;21913;52.456;13.634;2023-04-23T13:42:29;99179.91;;;13.95;80.05
25156;BME280;21913;52.456;13.634;2023-04-23T13:47:30;99166.06;;;13.94;80.30
25156;BME280;21913;52.456;13.634;2023-04-23T13:52:33;99153.97;;;13.93;80.26
25156;BME280;21913;52.456;13.634;2023-04-23T13:57:35;99146.16;;;13.93;80.30
25156;BME280;21913;52.456;13.634;2023-04-23T14:02:36;99140.94;;;13.93;80.49
25156;BME280;21913;52.456;13.634;2023-04-23T14:07:38;99137.50;;;13.93;80.47
25156;BME280;21913;52.456;13.634;2023-04-23T14:12:39;99125.41;;;13.92;80.50
25156;BME280;21913;52.456;13.634;2023-04-23T14:17:41;99108.91;;;13.93;80.51
25156;BME280;21913;52.456;13.634;2023-04-23T14:22:48;99101.94;;;13.93;80.23
25156;BME280;21913;52.456;13.634;2023-04-23T14:27:50;99095.00;;;13.94;80.42
25156;BME280;21913;52.456;13.634;2023-04-23T14:32:51;99090.69;;;13.93;80.23
25156;BME280;21913;52.456;13.634;2023-04-23T14:37:53;99077.69;;;13.93;80.43
25156;BME280;21913;52.456;13.634;2023-04-23T14:42:54;99073.34;;;13.93;80.29
25156;BME280;21913;52.456;13.634;2023-04-23T14:47:57;99069.84;;;13.94;80.37
25156;BME280;21913;52.456;13.634;2023-04-23T14:52:59;99064.69;;;13.93;80.14
25156;BME280;21913;52.456;13.634;2023-04-23T14:58:01;99051.63;;;13.94;80.22
25156;BME280;21913;52.456;13.634;2023-04-23T15:03:02;99048.19;;;13.94;80.33
25156;BME280;21913;52.456;13.634;2023-04-23T15:08:04;99039.53;;;13.93;80.20
25156;BME280;21913;52.456;13.634;2023-04-23T15:18:14;99017.88;;;13.93;80.14
25156;BME280;21913;52.456;13.634;2023-04-23T15:23:15;99012.72;;;13.91;80.10
25156;BME280;21913;52.456;13.634;2023-04-23T15:28:17;99017.88;;;13.93;80.27
25156;BME280;21913;52.456;13.634;2023-04-23T15:33:18;99012.69;;;13.93;80.25
25156;BME280;21913;52.456;13.634;2023-04-23T15:38:20;99008.34;;;13.93;79.56
25156;BME280;21913;52.456;13.634;2023-04-23T15:43:21;99000.34;;;14.00;76.82
25156;BME280;21913;52.456;13.634;2023-04-23T15:48:23;99002.81;;;14.04;75.44
25156;BME280;21913;52.456;13.634;2023-04-23T15:53:26;98998.41;;;14.06;75.64
25156;BME280;21913;52.456;13.634;2023-04-23T15:58:27;98989.88;;;14.03;76.40
25156;BME280;21913;52.456;13.634;2023-04-23T16:03:29;98987.28;;;14.01;77.15
25156;BME280;21913;52.456;13.634;2023-04-23T16:08:30;98987.34;;;14.00;77.64
25156;BME280;21913;52.456;13.634;2023-04-23T16:13:34;98975.25;;;13.99;77.01
25156;BME280;21913;52.456;13.634;2023-04-23T16:18:35;98975.09;;;14.03;74.81
25156;BME280;21913;52.456;13.634;2023-04-23T16:23:37;98965.56;;;14.02;73.06
25156;BME280;21913;52.456;13.634;2023-04-23T16:28:38;98961.28;;;14.01;69.58
25156;BME280;21913;52.456;13.634;2023-04-23T16:33:40;98961.13;;;14.06;68.26
25156;BME280;21913;52.456;13.634;2023-04-23T16:38:41;98962.84;;;14.07;69.81
25156;BME280;21913;52.456;13.634;2023-04-23T16:43:43;98952.53;;;14.04;71.56
25156;BME280;21913;52.456;13.634;2023-04-23T16:48:45;98950.84;;;14.03;73.19
25156;BME280;21913;52.456;13.634;2023-04-23T16:53:46;98958.72;;;14.00;74.30
25156;BME280;21913;52.456;13.634;2023-04-23T16:58:48;98957.06;;;13.97;75.00
25156;BME280;21913;52.456;13.634;2023-04-23T17:03:49;98950.16;;;13.96;75.62
25156;BME280;21913;52.456;13.634;2023-04-23T17:08:51;98958.88;;;13.95;76.16
25156;BME280;21913;52.456;13.634;2023-04-23T17:13:53;98940.66;;;13.95;76.31
25156;BME280;21913;52.456;13.634;2023-04-23T17:18:55;98937.22;;;13.94;76.70
25156;BME280;21913;52.456;13.634;2023-04-23T17:23:57;98921.69;;;13.93;77.09
25156;BME280;21913;52.456;13.634;2023-04-23T17:28:58;98921.69;;;13.93;77.30
25156;BME280;21913;52.456;13.634;2023-04-23T17:34:00;98912.19;;;13.92;77.57
25156;BME280;21913;52.456;13.634;2023-04-23T17:39:01;98892.22;;;13.92;77.65
25156;BME280;21913;52.456;13.634;2023-04-23T17:44:03;98893.97;;;13.92;78.00
25156;BME280;21913;52.456;13.634;2023-04-23T17:49:04;98888.81;;;13.90;78.14
25156;BME280;21913;52.456;13.634;2023-04-23T17:54:06;98880.09;;;13.91;78.30
25156;BME280;21913;52.456;13.634;2023-04-23T17:59:07;98877.50;;;13.91;78.46
25156;BME280;21913;52.456;13.634;2023-04-23T18:04:09;98879.25;;;13.91;78.43
25156;BME280;21913;52.456;13.634;2023-04-23T18:09:10;98890.50;;;13.91;78.65
25156;BME280;21913;52.456;13.634;2023-04-23T18:14:12;98907.84;;;13.91;78.79
25156;BME280;21913;52.456;13.634;2023-04-23T18:19:13;98924.31;;;13.91;78.74
25156;BME280;21913;52.456;13.634;2023-04-23T18:24:15;98958.09;;;13.91;78.88
25156;BME280;21913;52.456;13.634;2023-04-23T18:29:17;98980.66;;;13.91;78.93
25156;BME280;21913;52.456;13.634;2023-04-23T18:34:21;98997.97;;;13.92;79.00
25156;BME280;21913;52.456;13.634;2023-04-23T18:39:22;99000.59;;;13.90;79.05
25156;BME280;21913;52.456;13.634;2023-04-23T18:44:24;98980.66;;;13.91;79.19
25156;BME280;21913;52.456;13.634;2023-04-23T18:54:30;98946.06;;;13.89;79.29
25156;BME280;21913;52.456;13.634;2023-04-23T18:59:32;98925.25;;;13.89;79.37
25156;BME280;21913;52.456;13.634;2023-04-23T19:04:33;98922.66;;;13.89;79.40
25156;BME280;21913;52.456;13.634;2023-04-23T19:09:35;98920.97;;;13.88;79.41
25156;BME280;21913;52.456;13.634;2023-04-23T19:14:36;98915.75;;;13.88;79.61
25156;BME280;21913;52.456;13.634;2023-04-23T19:19:37;98907.97;;;13.88;79.63
25156;BME280;21913;52.456;13.634;2023-04-23T19:24:39;98901.84;;;13.89;79.54
25156;BME280;21913;52.456;13.634;2023-04-23T19:29:41;98891.50;;;13.87;79.57
25156;BME280;21913;52.456;13.634;2023-04-23T19:34:42;98888.06;;;13.87;79.50
25156;BME280;21913;52.456;13.634;2023-04-23T19:39:44;98882.88;;;13.87;79.54
25156;BME280;21913;52.456;13.634;2023-04-23T19:44:45;98869.81;;;13.88;79.48
25156;BME280;21913;52.456;13.634;2023-04-23T19:49:47;98855.13;;;13.87;79.59
25156;BME280;21913;52.456;13.634;2023-04-23T19:54:48;98857.72;;;13.87;79.46
25156;BME280;21913;52.456;13.634;2023-04-23T19:59:50;98866.38;;;13.88;79.54
25156;BME280;21913;52.456;13.634;2023-04-23T20:04:52;98853.41;;;13.86;79.50
25156;BME280;21913;52.456;13.634;2023-04-23T20:09:53;98860.34;;;13.86;79.66
25156;BME280;21913;52.456;13.634;2023-04-23T20:14:55;98856.88;;;13.87;79.58
25156;BME280;21913;52.456;13.634;2023-04-23T20:19:56;98855.13;;;13.87;79.49
25156;BME280;21913;52.456;13.634;2023-04-23T20:24:57;98853.44;;;13.85;79.50
25156;BME280;21913;52.456;13.634;2023-04-23T20:29:59;98861.22;;;13.86;79.54
25156;BME280;21913;52.456;13.634;2023-04-23T20:35:00;98861.22;;;13.86;79.67
25156;BME280;21913;52.456;13.634;2023-04-23T20:40:02;98859.47;;;13.87;79.71
25156;BME280;21913;52.456;13.634;2023-04-23T20:45:05;98843.88;;;13.87;79.43
25156;BME280;21913;52.456;13.634;2023-04-23T20:50:06;98840.41;;;13.86;79.61
25156;BME280;21913;52.456;13.634;2023-04-23T20:55:08;98849.94;;;13.86;79.64
25156;BME280;21913;52.456;13.634;2023-04-23T21:00:10;98838.66;;;13.87;79.55
25156;BME280;21913;52.456;13.634;2023-04-23T21:05:11;98834.34;;;13.86;79.77
25156;BME280;21913;52.456;13.634;2023-04-23T21:10:13;98834.34;;;13.86;79.73
25156;BME280;21913;52.456;13.634;2023-04-23T21:15:15;98827.41;;;13.86;79.53
25156;BME280;21913;52.456;13.634;2023-04-23T21:20:16;98822.22;;;13.86;79.70
25156;BME280;21913;52.456;13.634;2023-04-23T21:25:18;98811.84;;;13.85;79.59
25156;BME280;21913;52.456;13.634;2023-04-23T21:30:32;98810.94;;;13.86;79.50
25156;BME280;21913;52.456;13.634;2023-04-23T21:35:37;98806.66;;;13.85;79.76
25156;BME280;21913;52.456;13.634;2023-04-23T21:40:39;98814.44;;;13.85;79.70
25156;BME280;21913;52.456;13.634;2023-04-23T21:45:40;98799.69;;;13.85;79.63
25156;BME280;21913;52.456;13.634;2023-04-23T21:50:42;98814.44;;;13.85;79.77
25156;BME280;21913;52.456;13.634;2023-04-23T21:55:43;98804.06;;;13.85;79.67
25156;BME280;21913;52.456;13.634;2023-04-23T22:00:45;98808.34;;;13.86;79.76
25156;BME280;21913;52.456;13.634;2023-04-23T22:05:46;98803.19;;;13.84;79.67
25156;BME280;21913;52.456;13.634;2023-04-23T22:10:48;98809.25;;;13.85;79.79
25156;BME280;21913;52.456;13.634;2023-04-23T22:15:49;98804.97;;;13.84;79.67
25156;BME280;21913;52.456;13.634;2023-04-23T22:20:51;98806.66;;;13.85;79.63
25156;BME280;21913;52.456;13.634;2023-04-23T22:25:52;98798.84;;;13.85;79.66
25156;BME280;21913;52.456;13.634;2023-04-23T22:30:55;98800.59;;;13.84;79.71
25156;BME280;21913;52.456;13.634;2023-04-23T22:35:56;98804.06;;;13.85;79.68
25156;BME280;21913;52.456;13.634;2023-04-23T22:40:58;98805.88;;;13.83;79.63
25156;BME280;21913;52.456;13.634;2023-04-23T22:45:59;98817.06;;;13.85;79.77
25156;BME280;21913;52.456;13.634;2023-04-23T22:51:01;98816.19;;;13.84;79.56
25156;BME280;21913;52.456;13.634;2023-04-23T22:56:04;98814.50;;;13.83;79.84
25156;BME280;21913;52.456;13.634;2023-04-23T23:01:06;98834.47;;;13.83;79.79
25156;BME280;21913;52.456;13.634;2023-04-23T23:06:07;98841.34;;;13.84;79.60
25156;BME280;21913;52.456;13.634;2023-04-23T23:11:09;98843.94;;;13.84;79.51
25156;BME280;21913;52.456;13.634;2023-04-23T23:16:10;98843.09;;;13.83;79.68
25156;BME280;21913;52.456;13.634;2023-04-23T23:21:12;98844.00;;;13.82;79.61
25156;BME280;21913;52.456;13.634;2023-04-23T23:26:13;98843.09;;;13.83;79.68
25156;BME280;21913;52.456;13.634;2023-04-23T23:31:15;98837.97;;;13.82;79.50
25156;BME280;21913;52.456;13.634;2023-04-23T23:36:16;98835.38;;;13.82;79.64
25156;BME280;21913;52.456;13.634;2023-04-23T23:41:18;98827.56;;;13.82;79.54
25156;BME280;21913;52.456;13.634;2023-04-23T23:46:19;98823.22;;;13.82;79.62
25156;BME280;21913;52.456;13.634;2023-04-23T23:51:21;98830.16;;;13.82;79.45
25156;BME280;21913;52.456;13.634;2023-04-23T23:56:22;98827.56;;;13.82;79.57
